Time;durP1;ratioP1;P1;durP2;ratioP2;P2;SDS_P1;SDS_P2;PMS_P1;PMS_P2;Temp;Humidity;BMP_temperature;BMP_pressure;BME280_temperature;BME280_humidity;BME280_pressure;Samples;Min_cycle;Max_cycle;Signal;HPM_P1;HPM_P2
2022/09/27 00:02:05;;;;;;;;;;;;;;;21.90;41.07;99863.16;104425;1309;75512;-83
2022/09/27 00:04:33;;;;;;;;;;;;;;;21.91;40.89;99862.91;104469;1309;62053;-83
2022/09/27 00:07:01;;;;;;;;;;;;;;;21.90;40.90;99860.29;104507;1308;61973;-84
2022/09/27 00:09:29;;;;;;;;;;;;;;;21.90;40.94;99858.30;104472;1309;73958;-85
2022/09/27 00:11:57;;;;;;;;;;;;;;;21.90;40.92;99859.52;104466;1308;62120;-84
2022/09/27 00:14:23;;;;;;;;;;;;;;;21.90;40.92;99849.00;104521;1309;62000;-83
2022/09/27 00:16:49;;;;;;;;;;;;;;;21.90;41.02;99833.42;104623;1308;62229;-87
2022/09/27 00:19:17;;;;;;;;;;;;;;;21.89;41.01;99834.34;104524;1309;62111;-81
2022/09/27 00:21:43;;;;;;;;;;;;;;;21.90;41.02;99841.62;104503;1308;76558;-83
2022/09/27 00:24:13;;;;;;;;;;;;;;;21.89;40.91;99840.97;104469;1308;62001;-83
2022/09/27 00:26:39;;;;;;;;;;;;;;;21.90;41.15;99846.85;104489;1309;62079;-89
2022/09/27 00:29:04;;;;;;;;;;;;;;;21.90;40.95;99850.45;104623;1308;62081;-83
2022/09/27 00:31:30;;;;;;;;;;;;;;;21.90;41.14;99861.53;104531;1309;62149;-85
2022/09/27 00:34:05;;;;;;;;;;;;;;;21.90;41.10;99860.64;104511;1309;62061;-84
2022/09/27 00:36:33;;;;;;;;;;;;;;;21.90;41.09;99862.95;104623;1309;62028;-85
2022/09/27 00:38:59;;;;;;;;;;;;;;;21.90;41.08;99858.13;104528;1308;71338;-85
2022/09/27 00:41:30;;;;;;;;;;;;;;;21.90;41.02;99854.74;104475;1309;62123;-83
2022/09/27 00:43:57;;;;;;;;;;;;;;;21.90;41.04;99857.77;104515;1309;62114;-84
2022/09/27 00:46:37;;;;;;;;;;;;;;;21.90;41.19;99858.48;104539;1309;61976;-80
2022/09/27 00:49:25;;;;;;;;;;;;;;;21.90;41.19;99840.57;104501;1309;72706;-83
2022/09/27 00:51:53;;;;;;;;;;;;;;;21.90;41.14;99831.26;104517;1309;74425;-83
2022/09/27 00:54:21;;;;;;;;;;;;;;;21.90;41.22;99828.02;104510;1309;62106;-83
2022/09/27 00:56:48;;;;;;;;;;;;;;;21.90;41.06;99831.30;104531;1309;61990;-81
2022/09/27 00:59:14;;;;;;;;;;;;;;;21.90;41.30;99831.61;104521;1309;72853;-83
2022/09/27 01:01:39;;;;;;;;;;;;;;;21.90;41.13;99826.42;104486;1308;62112;-84
2022/09/27 01:04:09;;;;;;;;;;;;;;;21.90;41.24;99821.22;104548;1309;62078;-85
2022/09/27 01:06:35;;;;;;;;;;;;;;;21.90;41.29;99818.52;104553;1308;62132;-81
2022/09/27 01:09:00;;;;;;;;;;;;;;;21.90;41.38;99814.07;104517;1308;62233;-85
2022/09/27 01:11:47;;;;;;;;;;;;;;;21.89;41.20;99813.02;104478;1309;62079;-86
2022/09/27 01:14:19;;;;;;;;;;;;;;;21.90;41.28;99804.02;104663;1309;61812;-87
2022/09/27 01:16:54;;;;;;;;;;;;;;;21.89;41.43;99794.05;104524;1308;61999;-85
2022/09/27 01:19:26;;;;;;;;;;;;;;;21.90;41.53;99789.92;104647;1309;72971;-82
2022/09/27 01:22:03;;;;;;;;;;;;;;;21.89;41.48;99779.73;104507;1308;76734;-83
2022/09/27 01:24:55;;;;;;;;;;;;;;;21.90;41.52;99774.70;104645;1309;61929;-85
2022/09/27 01:27:30;;;;;;;;;;;;;;;21.89;41.41;99770.98;104539;1308;62077;-85
2022/09/27 01:30:10;;;;;;;;;;;;;;;21.89;41.42;99769.70;104494;1309;73634;-85
2022/09/27 01:32:38;;;;;;;;;;;;;;;21.90;41.46;99773.60;104490;1309;74438;-84
2022/09/27 01:35:24;;;;;;;;;;;;;;;21.89;41.59;99776.12;104513;1308;61986;-84
2022/09/27 01:37:55;;;;;;;;;;;;;;;21.90;41.53;99775.05;103972;1317;62114;-83
2022/09/27 01:40:28;;;;;;;;;;;;;;;21.90;41.51;99775.73;104107;1317;71825;-85
2022/09/27 01:43:19;;;;;;;;;;;;;;;21.90;41.67;99773.77;103971;1317;75460;-83
2022/09/27 01:45:48;;;;;;;;;;;;;;;21.90;41.58;99770.00;103260;1323;62016;-86
2022/09/27 01:48:22;;;;;;;;;;;;;;;21.90;41.52;99768.54;103012;1323;62048;-87
2022/09/27 01:50:55;;;;;;;;;;;;;;;21.90;41.68;99770.35;103241;1323;72774;-84
2022/09/27 01:53:21;;;;;;;;;;;;;;;21.90;41.73;99763.86;103064;1323;75575;-83
2022/09/27 01:55:47;;;;;;;;;;;;;;;21.90;41.71;99758.33;103250;1322;62112;-83
2022/09/27 01:58:16;;;;;;;;;;;;;;;21.90;41.66;99763.56;103202;1322;62129;-85
2022/09/27 02:00:42;;;;;;;;;;;;;;;21.90;41.74;99766.05;103061;1323;74029;-83
2022/09/27 02:03:11;;;;;;;;;;;;;;;21.90;41.80;99758.73;103020;1322;76429;-84
2022/09/27 02:05:41;;;;;;;;;;;;;;;21.90;41.79;99747.60;103265;1322;62238;-82
2022/09/27 02:08:11;;;;;;;;;;;;;;;21.90;41.75;99729.86;103251;1323;62014;-84
2022/09/27 02:10:38;;;;;;;;;;;;;;;21.90;41.92;99723.80;103260;1322;72869;-83
2022/09/27 02:13:18;;;;;;;;;;;;;;;21.90;41.86;99716.44;103039;1323;75120;-84
2022/09/27 02:16:04;;;;;;;;;;;;;;;21.89;41.84;99704.34;103613;1317;62079;-84
2022/09/27 02:18:33;;;;;;;;;;;;;;;21.89;41.93;99704.67;103738;1317;61890;-85
2022/09/27 02:21:01;;;;;;;;;;;;;;;21.89;41.82;99712.02;104118;1316;73883;-84
2022/09/27 02:23:36;;;;;;;;;;;;;;;21.90;41.93;99711.46;104405;1309;76533;-83
2022/09/27 02:26:04;;;;;;;;;;;;;;;21.89;42.13;99701.45;104618;1309;62043;-84
2022/09/27 02:28:35;;;;;;;;;;;;;;;21.90;42.14;99696.05;104522;1308;62011;-82
2022/09/27 02:31:01;;;;;;;;;;;;;;;21.90;42.04;99692.98;104629;1309;72857;-85
2022/09/27 02:33:46;;;;;;;;;;;;;;;21.89;41.89;99694.13;104506;1309;62184;-83
2022/09/27 02:36:12;;;;;;;;;;;;;;;21.89;41.94;99695.16;104466;1308;62210;-83
2022/09/27 02:38:38;;;;;;;;;;;;;;;21.90;42.24;99698.02;104616;1308;62075;-87
2022/09/27 02:41:11;;;;;;;;;;;;;;;21.90;42.26;99698.19;104558;1309;62055;-83
2022/09/27 02:43:36;;;;;;;;;;;;;;;21.89;42.15;99700.73;104485;1309;76732;-86
2022/09/27 02:46:07;;;;;;;;;;;;;;;21.89;42.22;99707.72;104492;1309;62109;-85
2022/09/27 02:48:38;;;;;;;;;;;;;;;21.90;42.20;99708.94;104488;1308;62186;-85
2022/09/27 02:51:07;;;;;;;;;;;;;;;21.89;42.37;99708.80;104609;1308;72807;-84
2022/09/27 02:53:34;;;;;;;;;;;;;;;21.89;42.12;99711.48;104526;1308;73991;-85
2022/09/27 02:56:06;;;;;;;;;;;;;;;21.90;42.24;99708.23;104511;1308;62059;-84
2022/09/27 02:58:39;;;;;;;;;;;;;;;21.89;42.31;99710.24;104539;1308;61983;-84
2022/09/27 03:01:08;;;;;;;;;;;;;;;21.89;42.54;99715.61;104560;1308;73027;-83
2022/09/27 03:03:42;;;;;;;;;;;;;;;21.89;42.39;99717.20;104489;1309;75566;-84
2022/09/27 03:06:09;;;;;;;;;;;;;;;21.89;42.44;99720.67;104517;1309;62105;-83
2022/09/27 03:08:36;;;;;;;;;;;;;;;21.87;42.57;99721.72;104433;1308;61980;-84
2022/09/27 03:11:01;;;;;;;;;;;;;;;21.86;42.50;99727.53;104516;1309;62138;-85
2022/09/27 03:13:30;;;;;;;;;;;;;;;21.86;42.93;99727.75;104530;1309;62885;-85
2022/09/27 03:15:55;;;;;;;;;;;;;;;21.85;43.06;99723.54;104469;1308;62110;-82
2022/09/27 03:18:22;;;;;;;;;;;;;;;21.85;42.89;99728.73;104491;1308;62207;-83
2022/09/27 03:20:48;;;;;;;;;;;;;;;21.85;42.98;99730.55;104519;1309;62064;-81
2022/09/27 03:23:14;;;;;;;;;;;;;;;21.84;43.06;99724.16;104497;1309;62095;-82
2022/09/27 03:25:40;;;;;;;;;;;;;;;21.84;43.17;99726.54;104632;1309;62131;-83
2022/09/27 03:28:05;;;;;;;;;;;;;;;21.83;43.28;99724.75;104556;1309;62143;-85
2022/09/27 03:30:31;;;;;;;;;;;;;;;21.83;43.24;99713.86;104503;1309;62176;-82
2022/09/27 03:32:57;;;;;;;;;;;;;;;21.83;43.33;99711.91;104553;1308;62230;-85
2022/09/27 03:35:22;;;;;;;;;;;;;;;21.83;43.50;99712.11;104535;1309;62118;-83
2022/09/27 03:37:48;;;;;;;;;;;;;;;21.82;43.50;99706.98;104488;1308;62105;-85
2022/09/27 03:40:14;;;;;;;;;;;;;;;21.82;43.57;99706.77;104490;1308;62194;-83
2022/09/27 03:42:43;;;;;;;;;;;;;;;21.82;43.73;99701.96;104488;1308;62106;-84
2022/09/27 03:45:08;;;;;;;;;;;;;;;21.82;43.62;99698.39;104521;1309;75325;-84
2022/09/27 03:47:38;;;;;;;;;;;;;;;21.82;43.68;99698.05;104509;1308;62111;-85
2022/09/27 03:50:05;;;;;;;;;;;;;;;21.81;43.75;99695.05;104490;1309;61978;-85
2022/09/27 03:52:30;;;;;;;;;;;;;;;21.81;43.81;99695.40;104317;1314;72772;-82
2022/09/27 03:54:56;;;;;;;;;;;;;;;21.81;43.93;99691.12;104282;1313;62232;-84
2022/09/27 03:57:25;;;;;;;;;;;;;;;21.81;44.01;99693.63;104311;1311;62108;-83
2022/09/27 03:59:50;;;;;;;;;;;;;;;21.81;44.15;99689.34;104193;1317;62185;-83
2022/09/27 04:02:16;;;;;;;;;;;;;;;21.80;44.14;99689.98;104219;1314;62188;-83
2022/09/27 04:04:42;;;;;;;;;;;;;;;21.79;44.29;99693.30;104237;1314;62127;-82
2022/09/27 04:07:08;;;;;;;;;;;;;;;21.78;44.58;99696.42;104215;1314;62088;-85
2022/09/27 04:09:37;;;;;;;;;;;;;;;21.77;44.62;99697.71;104215;1314;62299;-84
2022/09/27 04:12:03;;;;;;;;;;;;;;;21.76;44.78;99694.57;104224;1314;62198;-84
2022/09/27 04:14:32;;;;;;;;;;;;;;;21.75;44.87;99694.55;104249;1314;62352;-86
2022/09/27 04:16:57;;;;;;;;;;;;;;;21.75;44.81;99694.02;104163;1317;62101;-85
2022/09/27 04:19:23;;;;;;;;;;;;;;;21.75;45.16;99688.46;104209;1314;62120;-83
2022/09/27 04:21:48;;;;;;;;;;;;;;;21.74;45.09;99690.65;104142;1317;63355;-83
2022/09/27 04:24:17;;;;;;;;;;;;;;;21.74;45.19;99692.48;104277;1311;62270;-85
2022/09/27 04:26:43;;;;;;;;;;;;;;;21.73;45.21;99693.98;104271;1311;62086;-83
2022/09/27 04:29:09;;;;;;;;;;;;;;;21.72;45.34;99694.77;104238;1312;62099;-82
2022/09/27 04:31:36;;;;;;;;;;;;;;;21.72;45.46;99696.20;104166;1311;63224;-83
2022/09/27 04:34:05;;;;;;;;;;;;;;;21.72;45.60;99695.11;104249;1311;63280;-83
2022/09/27 04:36:30;;;;;;;;;;;;;;;21.73;45.67;99697.90;104226;1311;62109;-85
2022/09/27 04:39:00;;;;;;;;;;;;;;;21.74;45.65;99694.79;104396;1309;62142;-84
2022/09/27 04:41:26;;;;;;;;;;;;;;;21.74;45.59;99694.21;104437;1308;72594;-82
2022/09/27 04:43:55;;;;;;;;;;;;;;;21.74;45.76;99694.27;104015;1309;76600;-83
2022/09/27 04:46:21;;;;;;;;;;;;;;;21.73;45.96;99696.83;104012;1308;63227;-82
2022/09/27 04:48:46;;;;;;;;;;;;;;;21.70;46.08;99698.92;103823;1308;60480;-83
2022/09/27 04:51:12;;;;;;;;;;;;;;;21.68;46.25;99700.89;103497;1308;62271;-82
2022/09/27 04:53:38;;;;;;;;;;;;;;;21.67;46.37;99702.37;103743;1308;62096;-84
2022/09/27 04:56:05;;;;;;;;;;;;;;;21.67;46.28;99697.59;103645;1309;62165;-83
2022/09/27 04:58:34;;;;;;;;;;;;;;;21.66;46.69;99699.66;103749;1309;62113;-83
2022/09/27 05:01:01;;;;;;;;;;;;;;;21.65;46.59;99687.23;103565;1308;72664;-84
2022/09/27 05:03:27;;;;;;;;;;;;;;;21.64;46.76;99675.45;103661;1309;76722;-83
2022/09/27 05:05:53;;;;;;;;;;;;;;;21.64;46.94;99673.14;103650;1309;62129;-82
2022/09/27 05:08:19;;;;;;;;;;;;;;;21.63;46.94;99673.29;103618;1308;62197;-83
2022/09/27 05:10:46;;;;;;;;;;;;;;;21.62;47.05;99672.40;103742;1308;62032;-82
2022/09/27 05:13:12;;;;;;;;;;;;;;;21.63;46.95;99666.98;103888;1309;62220;-82
2022/09/27 05:15:38;;;;;;;;;;;;;;;21.64;47.07;99661.13;103804;1309;62266;-82
2022/09/27 05:18:04;;;;;;;;;;;;;;;21.65;47.03;99662.17;104172;1308;62181;-83
2022/09/27 05:20:29;;;;;;;;;;;;;;;21.65;47.05;99655.73;104002;1308;63897;-83
2022/09/27 05:22:55;;;;;;;;;;;;;;;21.65;47.03;99651.04;103975;1308;62084;-83
2022/09/27 05:25:21;;;;;;;;;;;;;;;21.65;47.06;99642.41;104030;1310;76541;-80
2022/09/27 05:27:46;;;;;;;;;;;;;;;21.65;47.21;99639.92;103801;1308;62092;-83
2022/09/27 05:30:12;;;;;;;;;;;;;;;21.65;47.06;99635.63;103983;1308;62155;-81
2022/09/27 05:32:45;;;;;;;;;;;;;;;21.66;47.29;99637.55;103944;1308;62143;-82
2022/09/27 05:35:11;;;;;;;;;;;;;;;21.66;47.49;99641.65;103968;1309;76784;-83
2022/09/27 05:37:39;;;;;;;;;;;;;;;21.65;47.58;99641.70;104122;1307;62104;-85
2022/09/27 05:40:05;;;;;;;;;;;;;;;21.65;47.55;99648.73;104086;1309;62083;-82
2022/09/27 05:42:37;;;;;;;;;;;;;;;21.65;47.91;99662.54;104059;1306;60541;-81
2022/09/27 05:45:04;;;;;;;;;;;;;;;21.64;47.97;99660.62;104245;1308;76795;-84
2022/09/27 05:47:32;;;;;;;;;;;;;;;21.64;48.06;99654.73;104332;1308;60078;-83
2022/09/27 05:49:58;;;;;;;;;;;;;;;21.63;47.94;99641.95;104217;1308;60658;-82
2022/09/27 05:52:24;;;;;;;;;;;;;;;21.63;47.96;99655.70;104423;1308;61162;-82
2022/09/27 05:54:49;;;;;;;;;;;;;;;21.60;48.04;99661.88;104324;1308;62095;-83
2022/09/27 05:57:16;;;;;;;;;;;;;;;21.53;48.35;99663.75;104591;1309;61062;-83
2022/09/27 05:59:45;;;;;;;;;;;;;;;21.47;48.29;99665.31;104325;1309;60433;-84
2022/09/27 06:02:11;;;;;;;;;;;;;;;21.47;48.56;99666.58;104569;1307;74009;-82
2022/09/27 06:04:37;;;;;;;;;;;;;;;21.47;48.57;99668.39;104343;1308;60681;-83
2022/09/27 06:07:02;;;;;;;;;;;;;;;21.43;48.68;99666.79;104465;1306;62087;-83
2022/09/27 06:09:29;;;;;;;;;;;;;;;21.42;48.83;99664.36;104270;1308;62205;-82
2022/09/27 06:11:54;;;;;;;;;;;;;;;21.38;48.87;99662.20;104304;1309;62188;-83
2022/09/27 06:14:19;;;;;;;;;;;;;;;21.38;49.00;99661.46;104333;1308;62242;-84
2022/09/27 06:16:45;;;;;;;;;;;;;;;21.38;49.22;99656.69;104270;1309;75468;-84
2022/09/27 06:19:10;;;;;;;;;;;;;;;21.32;49.04;99657.60;104303;1308;62196;-82
2022/09/27 06:21:36;;;;;;;;;;;;;;;21.30;49.28;99665.45;104373;1308;62173;-83
2022/09/27 06:24:02;;;;;;;;;;;;;;;21.32;49.29;99674.09;104279;1309;62319;-83
2022/09/27 06:26:27;;;;;;;;;;;;;;;21.25;49.36;99673.39;104253;1308;62110;-81
2022/09/27 06:28:54;;;;;;;;;;;;;;;21.20;49.83;99669.77;104438;1308;76498;-82
2022/09/27 06:31:20;;;;;;;;;;;;;;;21.20;49.63;99655.02;104435;1308;62231;-85
2022/09/27 06:33:46;;;;;;;;;;;;;;;21.16;49.88;99651.30;104286;1309;62117;-84
2022/09/27 06:36:12;;;;;;;;;;;;;;;21.10;49.92;99652.88;104207;1309;60103;-83
2022/09/27 06:38:37;;;;;;;;;;;;;;;21.08;50.02;99657.90;104304;1308;63812;-82
2022/09/27 06:41:03;;;;;;;;;;;;;;;21.11;50.12;99662.13;104282;1308;62185;-84
2022/09/27 06:43:30;;;;;;;;;;;;;;;21.15;50.09;99653.89;104473;1306;62058;-83
2022/09/27 06:46:00;;;;;;;;;;;;;;;21.18;50.05;99653.65;104341;1309;61946;-83
2022/09/27 06:48:25;;;;;;;;;;;;;;;21.16;50.06;99654.14;104418;1307;73789;-83
2022/09/27 06:50:51;;;;;;;;;;;;;;;21.14;50.22;99652.78;104237;1309;62116;-83
2022/09/27 06:53:16;;;;;;;;;;;;;;;21.19;50.26;99656.26;104126;1309;62104;-83
2022/09/27 06:55:42;;;;;;;;;;;;;;;21.24;50.62;99647.52;104406;1307;62105;-82
2022/09/27 07:01:02;;;;;;;;;;;;;;;21.38;50.83;99644.83;104357;1308;71647;-82
2022/09/27 07:03:31;;;;;;;;;;;;;;;21.39;50.95;99653.21;104246;1309;76659;-81
2022/09/27 07:05:57;;;;;;;;;;;;;;;21.39;50.94;99660.36;104219;1309;62189;-83
2022/09/27 07:08:26;;;;;;;;;;;;;;;21.38;50.93;99649.14;104345;1309;62097;-83
2022/09/27 07:10:52;;;;;;;;;;;;;;;21.36;51.05;99645.55;104333;1307;72682;-83
2022/09/27 07:13:17;;;;;;;;;;;;;;;21.36;51.14;99651.14;104407;1306;60359;-81
2022/09/27 07:15:43;;;;;;;;;;;;;;;21.33;51.42;99661.20;104443;1307;62075;-83
2022/09/27 07:18:10;;;;;;;;;;;;;;;21.33;51.39;99665.19;104326;1309;62180;-86
2022/09/27 07:20:37;;;;;;;;;;;;;;;21.29;51.46;99653.56;104355;1307;78626;-83
2022/09/27 07:23:04;;;;;;;;;;;;;;;21.20;51.66;99653.60;104280;1308;59686;-83
2022/09/27 07:25:29;;;;;;;;;;;;;;;21.14;51.57;99657.41;104255;1308;62081;-84
2022/09/27 07:27:59;;;;;;;;;;;;;;;21.07;51.64;99656.57;104339;1309;60345;-82
2022/09/27 07:30:25;;;;;;;;;;;;;;;21.00;52.08;99667.73;104358;1309;72737;-83
2022/09/27 07:32:56;;;;;;;;;;;;;;;21.01;52.03;99678.02;104293;1308;77131;-82
2022/09/27 07:35:21;;;;;;;;;;;;;;;21.03;51.88;99676.39;104709;1306;60214;-83
2022/09/27 07:37:47;;;;;;;;;;;;;;;21.04;52.14;99670.30;104249;1309;62094;-83
2022/09/27 07:40:13;;;;;;;;;;;;;;;21.01;52.03;99662.63;104237;1308;62266;-82
2022/09/27 07:42:40;;;;;;;;;;;;;;;21.03;52.13;99657.48;104273;1308;61939;-84
2022/09/27 07:45:06;;;;;;;;;;;;;;;21.08;52.14;99648.04;104314;1309;62294;-83
2022/09/27 07:47:31;;;;;;;;;;;;;;;21.14;51.87;99648.05;104244;1308;62112;-82
2022/09/27 07:49:57;;;;;;;;;;;;;;;21.20;52.17;99644.17;104350;1309;62078;-82
2022/09/27 07:52:22;;;;;;;;;;;;;;;21.24;51.75;99638.02;104217;1308;72921;-85
2022/09/27 07:54:49;;;;;;;;;;;;;;;21.29;51.87;99632.46;104359;1308;62173;-82
2022/09/27 07:57:14;;;;;;;;;;;;;;;21.32;51.68;99646.11;104306;1309;62194;-81
2022/09/27 07:59:41;;;;;;;;;;;;;;;21.35;51.75;99657.16;104190;1308;62109;-83
2022/09/27 08:02:14;;;;;;;;;;;;;;;21.38;51.73;99665.64;104264;1308;61971;-82
2022/09/27 08:04:40;;;;;;;;;;;;;;;21.37;51.96;99672.34;104003;1309;76620;-82
2022/09/27 08:07:06;;;;;;;;;;;;;;;21.37;52.14;99662.14;104240;1309;60862;-84
2022/09/27 08:09:32;;;;;;;;;;;;;;;21.38;51.92;99663.85;104223;1308;61982;-85
2022/09/27 08:11:58;;;;;;;;;;;;;;;21.37;52.06;99660.73;104294;1309;62085;-83
2022/09/27 08:14:23;;;;;;;;;;;;;;;21.35;52.31;99657.63;104424;1308;65457;-84
2022/09/27 08:16:50;;;;;;;;;;;;;;;21.35;52.27;99648.35;104399;1308;60869;-84
2022/09/27 08:19:16;;;;;;;;;;;;;;;21.36;52.18;99646.15;105072;1310;60400;-84
2022/09/27 08:21:42;;;;;;;;;;;;;;;21.36;52.33;99659.71;105183;1308;60446;-84
2022/09/27 08:24:07;;;;;;;;;;;;;;;21.39;52.52;99657.30;104647;1308;62194;-83
2022/09/27 08:26:33;;;;;;;;;;;;;;;21.42;52.55;99657.71;104597;1308;75765;-83
2022/09/27 08:28:58;;;;;;;;;;;;;;;21.45;52.46;99659.30;104463;1309;62124;-84
2022/09/27 08:31:24;;;;;;;;;;;;;;;21.47;52.33;99651.38;104281;1309;62085;-84
2022/09/27 08:33:50;;;;;;;;;;;;;;;21.50;52.18;99652.73;104350;1308;64235;-83
2022/09/27 08:36:16;;;;;;;;;;;;;;;21.54;52.20;99656.64;104394;1307;61233;-84
2022/09/27 08:38:42;;;;;;;;;;;;;;;21.59;52.00;99660.19;104339;1308;62318;-84
2022/09/27 08:41:28;;;;;;;;;;;;;;;21.64;52.36;99661.52;104324;1308;62194;-82
2022/09/27 08:44:06;;;;;;;;;;;;;;;21.71;52.44;99664.09;104308;1308;61995;-83
2022/09/27 08:46:38;;;;;;;;;;;;;;;21.77;52.59;99650.10;104303;1308;73896;-82
2022/09/27 08:49:06;;;;;;;;;;;;;;;21.83;52.53;99650.11;104297;1309;75748;-82
2022/09/27 08:51:31;;;;;;;;;;;;;;;21.87;52.50;99655.09;104242;1308;62730;-85
2022/09/27 08:54:04;;;;;;;;;;;;;;;21.90;52.36;99654.84;104278;1308;63711;-84
2022/09/27 08:56:30;;;;;;;;;;;;;;;21.91;52.36;99661.02;103756;1308;72820;-82
2022/09/27 08:59:09;;;;;;;;;;;;;;;21.90;52.40;99661.97;103671;1308;62063;-83
2022/09/27 09:01:35;;;;;;;;;;;;;;;21.92;52.32;99657.86;104293;1307;61007;-84
2022/09/27 09:04:03;;;;;;;;;;;;;;;21.92;52.27;99650.55;104440;1307;62117;-85
2022/09/27 09:06:46;;;;;;;;;;;;;;;21.92;52.67;99652.09;105022;1309;72622;-84
2022/09/27 09:09:12;;;;;;;;;;;;;;;21.94;52.74;99642.95;105018;1307;76016;-84
2022/09/27 09:14:59;;;;;;;;;;;;;;;21.92;52.81;99640.12;104007;1308;62015;-84
2022/09/27 09:17:24;;;;;;;;;;;;;;;21.89;52.85;99637.16;104388;1308;73758;-85
2022/09/27 09:19:50;;;;;;;;;;;;;;;21.90;52.73;99638.18;104413;1308;60799;-83
2022/09/27 09:22:28;;;;;;;;;;;;;;;21.90;52.61;99642.27;104249;1309;62884;-83
2022/09/27 09:24:53;;;;;;;;;;;;;;;21.89;52.61;99642.73;104335;1308;62347;-84
2022/09/27 09:27:35;;;;;;;;;;;;;;;21.88;52.79;99638.89;104250;1309;62113;-84
2022/09/27 09:30:04;;;;;;;;;;;;;;;21.87;52.67;99639.17;104288;1308;75663;-84
2022/09/27 09:32:32;;;;;;;;;;;;;;;21.85;52.63;99635.00;105360;1306;59985;-84
2022/09/27 09:35:10;;;;;;;;;;;;;;;21.83;52.74;99618.08;105271;1308;61030;-84
2022/09/27 09:37:39;;;;;;;;;;;;;;;21.81;52.74;99613.79;104844;1309;73889;-84
2022/09/27 09:40:08;;;;;;;;;;;;;;;21.79;52.76;99613.40;104263;1309;75760;-83
2022/09/27 09:42:34;;;;;;;;;;;;;;;21.79;52.66;99604.08;104350;1308;61917;-83
2022/09/27 09:45:05;;;;;;;;;;;;;;;21.78;52.66;99605.95;104423;1307;62346;-82
2022/09/27 09:47:49;;;;;;;;;;;;;;;21.78;52.65;99603.30;104637;1308;72804;-81
2022/09/27 09:50:17;;;;;;;;;;;;;;;21.77;52.63;99594.98;104313;1308;75743;-83
2022/09/27 09:52:44;;;;;;;;;;;;;;;21.74;52.81;99594.28;104426;1306;61995;-84
2022/09/27 09:55:15;;;;;;;;;;;;;;;21.72;52.63;99592.50;104257;1309;62048;-83
2022/09/27 09:58:13;;;;;;;;;;;;;;;21.70;52.65;99591.46;104194;1308;72766;-82
2022/09/27 10:00:39;;;;;;;;;;;;;;;21.70;52.86;99590.98;103921;1309;75978;-83
2022/09/27 10:03:04;;;;;;;;;;;;;;;21.70;52.77;99592.39;103846;1308;583440;-83
2022/09/27 10:05:30;;;;;;;;;;;;;;;21.71;52.84;99593.16;104195;1308;62580;-84
2022/09/27 10:07:57;;;;;;;;;;;;;;;21.74;52.85;99597.36;104250;1309;60949;-83
2022/09/27 10:10:22;;;;;;;;;;;;;;;21.76;52.85;99592.36;104197;1309;62050;-84
2022/09/27 10:12:48;;;;;;;;;;;;;;;21.74;52.85;99583.91;104200;1309;61935;-84
2022/09/27 10:15:21;;;;;;;;;;;;;;;21.72;52.87;99587.66;104320;1308;62570;-84
2022/09/27 10:17:52;;;;;;;;;;;;;;;21.72;52.85;99583.43;104220;1308;72958;-83
2022/09/27 10:20:27;;;;;;;;;;;;;;;21.69;52.77;99582.44;104820;1308;75642;-83
2022/09/27 10:22:54;;;;;;;;;;;;;;;21.66;52.66;99580.21;104249;1309;62169;-84
2022/09/27 10:25:20;;;;;;;;;;;;;;;21.66;52.73;99577.89;104602;1307;62132;-84
2022/09/27 10:27:46;;;;;;;;;;;;;;;21.67;52.61;99576.39;104193;1309;62153;-84
2022/09/27 10:30:26;;;;;;;;;;;;;;;21.68;52.74;99575.40;104240;1309;62083;-84
2022/09/27 10:32:53;;;;;;;;;;;;;;;21.67;52.76;99577.80;104246;1309;62119;-85
2022/09/27 10:35:32;;;;;;;;;;;;;;;21.66;52.62;99579.14;104319;1309;61964;-85
2022/09/27 10:38:12;;;;;;;;;;;;;;;21.66;52.60;99581.15;104274;1308;72673;-83
2022/09/27 10:40:37;;;;;;;;;;;;;;;21.66;52.50;99572.89;104409;1307;75784;-85
2022/09/27 10:43:03;;;;;;;;;;;;;;;21.66;52.47;99561.98;104333;1308;62136;-84
2022/09/27 10:45:29;;;;;;;;;;;;;;;21.65;52.39;99558.98;104378;1308;62169;-84
2022/09/27 10:47:55;;;;;;;;;;;;;;;21.66;52.27;99561.65;104385;1306;61977;-85
2022/09/27 10:50:25;;;;;;;;;;;;;;;21.66;52.35;99561.44;104220;1309;62204;-84
2022/09/27 10:53:02;;;;;;;;;;;;;;;21.67;52.27;99557.22;104042;1308;62947;-85
2022/09/27 10:55:28;;;;;;;;;;;;;;;21.68;52.29;99558.86;104007;1309;61996;-83
2022/09/27 10:57:54;;;;;;;;;;;;;;;21.69;52.09;99557.20;103871;1309;62194;-83
2022/09/27 11:00:20;;;;;;;;;;;;;;;21.70;52.34;99554.05;103755;1309;62103;-83
2022/09/27 11:02:50;;;;;;;;;;;;;;;21.70;52.34;99544.52;104061;1308;62087;-84
2022/09/27 11:05:16;;;;;;;;;;;;;;;21.72;52.40;99540.62;103489;1309;61994;-83
2022/09/27 11:07:47;;;;;;;;;;;;;;;21.71;52.42;99542.00;103528;1308;72101;-83
2022/09/27 11:10:27;;;;;;;;;;;;;;;21.69;52.45;99545.79;103307;1308;74386;-83
2022/09/27 11:13:11;;;;;;;;;;;;;;;21.67;52.32;99552.89;103476;1309;62043;-83
2022/09/27 11:15:57;;;;;;;;;;;;;;;21.66;52.54;99553.55;105226;1306;61746;-83
2022/09/27 11:18:29;;;;;;;;;;;;;;;21.66;52.49;99553.91;105211;1308;73887;-84
2022/09/27 11:21:21;;;;;;;;;;;;;;;21.67;52.47;99546.08;105198;1307;74627;-83
2022/09/27 11:23:48;;;;;;;;;;;;;;;21.72;52.55;99540.59;104303;1308;60605;-83
2022/09/27 11:26:16;;;;;;;;;;;;;;;21.75;52.62;99540.36;103780;1308;62502;-82
2022/09/27 11:29:21;;;;;;;;;;;;;;;21.76;52.58;99534.68;103828;1309;72806;-83
2022/09/27 11:31:52;;;;;;;;;;;;;;;21.77;52.35;99528.67;103445;1314;75394;-83
2022/09/27 11:34:21;;;;;;;;;;;;;;;21.77;52.42;99523.50;103518;1314;62050;-82
2022/09/27 11:36:46;;;;;;;;;;;;;;;21.78;52.38;99528.62;103307;1314;62110;-82
2022/09/27 11:39:12;;;;;;;;;;;;;;;21.79;52.26;99529.75;103421;1314;62080;-83
2022/09/27 11:41:41;;;;;;;;;;;;;;;21.80;52.33;99530.40;103445;1314;62091;-82
2022/09/27 11:44:20;;;;;;;;;;;;;;;21.81;52.39;99528.14;103412;1314;61989;-83
2022/09/27 11:47:04;;;;;;;;;;;;;;;21.83;52.51;99523.27;103399;1314;62145;-83
2022/09/27 11:49:29;;;;;;;;;;;;;;;21.84;52.29;99528.73;103218;1314;72931;-84
2022/09/27 11:52:02;;;;;;;;;;;;;;;21.88;52.40;99531.29;103390;1316;62599;-83
2022/09/27 11:54:29;;;;;;;;;;;;;;;21.89;52.51;99531.51;103535;1314;63315;-83
2022/09/27 11:56:55;;;;;;;;;;;;;;;21.90;52.49;99534.84;103476;1314;62011;-84
2022/09/27 11:59:41;;;;;;;;;;;;;;;21.89;52.59;99528.98;103423;1314;62178;-84
2022/09/27 12:02:07;;;;;;;;;;;;;;;21.90;52.53;99526.58;103371;1309;75678;-81
2022/09/27 12:04:38;;;;;;;;;;;;;;;21.91;52.48;99524.55;103623;1308;62174;-83
2022/09/27 12:07:07;;;;;;;;;;;;;;;21.92;52.42;99524.42;103898;1309;61990;-83
2022/09/27 12:09:34;;;;;;;;;;;;;;;21.92;52.38;99519.23;103761;1308;71739;-83
2022/09/27 12:12:10;;;;;;;;;;;;;;;21.92;52.23;99507.23;103967;1309;61990;-83
2022/09/27 12:14:43;;;;;;;;;;;;;;;21.92;52.27;99500.38;103822;1310;62043;-85
2022/09/27 12:17:14;;;;;;;;;;;;;;;21.93;52.28;99495.16;103886;1309;62049;-83
2022/09/27 12:19:41;;;;;;;;;;;;;;;21.91;52.23;99500.88;103862;1309;73876;-83
2022/09/27 12:22:10;;;;;;;;;;;;;;;21.90;52.11;99510.41;103904;1308;75533;-82
2022/09/27 12:24:36;;;;;;;;;;;;;;;21.90;52.24;99504.89;104140;1308;62093;-83
2022/09/27 12:27:27;;;;;;;;;;;;;;;21.91;52.08;99507.35;104009;1309;62117;-84
2022/09/27 12:29:55;;;;;;;;;;;;;;;21.91;51.86;99501.77;104012;1309;72829;-84
2022/09/27 12:32:29;;;;;;;;;;;;;;;21.91;51.86;99496.40;104214;1307;76569;-83
2022/09/27 12:35:01;;;;;;;;;;;;;;;21.91;51.91;99493.71;104128;1309;62087;-81
2022/09/27 12:37:30;;;;;;;;;;;;;;;21.90;51.94;99492.55;104320;1308;61924;-84
2022/09/27 12:40:06;;;;;;;;;;;;;;;21.89;51.88;99499.46;104138;1308;71562;-85
2022/09/27 12:42:34;;;;;;;;;;;;;;;21.89;51.78;99500.91;104269;1308;76526;-83
2022/09/27 12:45:01;;;;;;;;;;;;;;;21.89;51.73;99495.14;104284;1309;62089;-85
2022/09/27 12:47:27;;;;;;;;;;;;;;;21.90;51.67;99481.27;104497;1308;61964;-84
2022/09/27 12:49:59;;;;;;;;;;;;;;;21.90;51.61;99469.81;104450;1309;62213;-83
2022/09/27 12:52:25;;;;;;;;;;;;;;;21.90;51.61;99460.85;104446;1309;75673;-83